sensor_id;sensor_type;location;lat;lon;timestamp;temperature;humidity
939;DHT22;456;53.584;9.968;2023-02-03T00:01:13;16.30;19.10
939;DHT22;456;53.584;9.968;2023-02-03T00:03:38;16.30;19.20
939;DHT22;456;53.584;9.968;2023-02-03T00:06:05;16.30;19.10
939;DHT22;456;53.584;9.968;2023-02-03T00:08:31;16.30;19.30
939;DHT22;456;53.584;9.968;2023-02-03T00:10:57;16.30;19.30
939;DHT22;456;53.584;9.968;2023-02-03T00:13:23;16.30;19.30
939;DHT22;456;53.584;9.968;2023-02-03T00:15:50;16.30;19.40
939;DHT22;456;53.584;9.968;2023-02-03T00:18:15;16.30;19.40
939;DHT22;456;53.584;9.968;2023-02-03T00:20:41;16.30;19.30
939;DHT22;456;53.584;9.968;2023-02-03T00:23:09;16.20;19.30
939;DHT22;456;53.584;9.968;2023-02-03T00:25:35;16.30;19.30
939;DHT22;456;53.584;9.968;2023-02-03T00:28:00;16.30;19.40
939;DHT22;456;53.584;9.968;2023-02-03T00:30:26;16.30;19.40
939;DHT22;456;53.584;9.968;2023-02-03T00:32:52;16.30;19.40
939;DHT22;456;53.584;9.968;2023-02-03T00:35:17;16.30;19.60
939;DHT22;456;53.584;9.968;2023-02-03T00:37:43;16.20;19.60
939;DHT22;456;53.584;9.968;2023-02-03T00:40:09;16.20;19.70
939;DHT22;456;53.584;9.968;2023-02-03T00:42:35;16.20;19.70
939;DHT22;456;53.584;9.968;2023-02-03T00:45:01;16.20;19.80
939;DHT22;456;53.584;9.968;2023-02-03T00:47:27;16.20;19.80
939;DHT22;456;53.584;9.968;2023-02-03T00:49:52;16.20;19.90
939;DHT22;456;53.584;9.968;2023-02-03T00:52:18;16.20;19.90
939;DHT22;456;53.584;9.968;2023-02-03T00:54:43;16.20;20.00
939;DHT22;456;53.584;9.968;2023-02-03T00:57:09;16.20;20.20
939;DHT22;456;53.584;9.968;2023-02-03T00:59:34;16.20;20.40
939;DHT22;456;53.584;9.968;2023-02-03T01:02:00;16.20;20.50
939;DHT22;456;53.584;9.968;2023-02-03T01:04:25;16.20;20.60
939;DHT22;456;53.584;9.968;2023-02-03T01:06:51;16.20;20.40
939;DHT22;456;53.584;9.968;2023-02-03T01:09:20;16.20;20.50
939;DHT22;456;53.584;9.968;2023-02-03T01:11:46;16.20;20.50
939;DHT22;456;53.584;9.968;2023-02-03T01:14:11;16.20;20.60
939;DHT22;456;53.584;9.968;2023-02-03T01:16:37;16.20;20.70
939;DHT22;456;53.584;9.968;2023-02-03T01:19:04;16.20;20.90
939;DHT22;456;53.584;9.968;2023-02-03T01:21:30;16.10;20.80
939;DHT22;456;53.584;9.968;2023-02-03T01:23:57;16.20;21.00
939;DHT22;456;53.584;9.968;2023-02-03T01:26:24;16.20;21.00
939;DHT22;456;53.584;9.968;2023-02-03T01:28:57;16.10;21.00
939;DHT22;456;53.584;9.968;2023-02-03T01:31:31;16.10;21.00
939;DHT22;456;53.584;9.968;2023-02-03T01:34:02;16.10;21.10
939;DHT22;456;53.584;9.968;2023-02-03T01:36:29;16.10;21.20
939;DHT22;456;53.584;9.968;2023-02-03T01:38:55;16.10;21.40
939;DHT22;456;53.584;9.968;2023-02-03T01:41:25;16.10;21.30
939;DHT22;456;53.584;9.968;2023-02-03T01:43:53;16.10;21.50
939;DHT22;456;53.584;9.968;2023-02-03T01:46:23;16.10;21.40
939;DHT22;456;53.584;9.968;2023-02-03T01:49:07;16.10;21.40
939;DHT22;456;53.584;9.968;2023-02-03T01:51:34;16.10;21.50
939;DHT22;456;53.584;9.968;2023-02-03T01:54:00;16.10;21.50
939;DHT22;456;53.584;9.968;2023-02-03T01:56:30;16.10;21.70
939;DHT22;456;53.584;9.968;2023-02-03T01:58:57;16.10;21.70
939;DHT22;456;53.584;9.968;2023-02-03T02:01:24;16.10;21.80
939;DHT22;456;53.584;9.968;2023-02-03T02:03:54;16.10;21.70
939;DHT22;456;53.584;9.968;2023-02-03T02:06:21;16.10;21.80
939;DHT22;456;53.584;9.968;2023-02-03T02:08:49;16.10;21.90
939;DHT22;456;53.584;9.968;2023-02-03T02:11:15;16.10;21.70
939;DHT22;456;53.584;9.968;2023-02-03T02:13:44;16.10;21.90
939;DHT22;456;53.584;9.968;2023-02-03T02:16:17;16.10;21.80
939;DHT22;456;53.584;9.968;2023-02-03T02:19:01;16.10;21.90
939;DHT22;456;53.584;9.968;2023-02-03T02:27:06;16.10;22.00
939;DHT22;456;53.584;9.968;2023-02-03T02:38:03;16.00;22.10
939;DHT22;456;53.584;9.968;2023-02-03T02:41:05;16.00;22.20
939;DHT22;456;53.584;9.968;2023-02-03T02:44:06;16.00;22.20
939;DHT22;456;53.584;9.968;2023-02-03T02:46:40;16.00;22.30
939;DHT22;456;53.584;9.968;2023-02-03T02:51:43;16.00;22.20
939;DHT22;456;53.584;9.968;2023-02-03T02:54:15;16.00;22.40
939;DHT22;456;53.584;9.968;2023-02-03T02:56:43;16.00;22.50
939;DHT22;456;53.584;9.968;2023-02-03T02:59:09;16.00;22.40
939;DHT22;456;53.584;9.968;2023-02-03T03:01:35;16.00;22.30
939;DHT22;456;53.584;9.968;2023-02-03T03:04:04;16.00;22.30
939;DHT22;456;53.584;9.968;2023-02-03T03:06:48;16.00;22.40
939;DHT22;456;53.584;9.968;2023-02-03T03:09:19;16.00;22.50
939;DHT22;456;53.584;9.968;2023-02-03T03:11:50;16.00;22.50
939;DHT22;456;53.584;9.968;2023-02-03T03:14:18;16.00;22.60
939;DHT22;456;53.584;9.968;2023-02-03T03:16:50;16.00;22.60
939;DHT22;456;53.584;9.968;2023-02-03T03:19:21;16.00;22.60
939;DHT22;456;53.584;9.968;2023-02-03T03:21:52;16.00;22.80
939;DHT22;456;53.584;9.968;2023-02-03T03:24:33;16.00;22.90
939;DHT22;456;53.584;9.968;2023-02-03T03:27:05;16.00;22.90
939;DHT22;456;53.584;9.968;2023-02-03T03:29:45;16.00;22.90
939;DHT22;456;53.584;9.968;2023-02-03T03:32:13;16.00;22.90
939;DHT22;456;53.584;9.968;2023-02-03T03:34:39;16.00;22.90
939;DHT22;456;53.584;9.968;2023-02-03T03:37:19;16.00;22.90
939;DHT22;456;53.584;9.968;2023-02-03T03:39:55;16.00;22.90
939;DHT22;456;53.584;9.968;2023-02-03T03:45:06;15.90;22.90
939;DHT22;456;53.584;9.968;2023-02-03T03:47:38;16.00;22.80
939;DHT22;456;53.584;9.968;2023-02-03T03:50:09;16.00;22.60
939;DHT22;456;53.584;9.968;2023-02-03T03:52:37;16.10;22.00
939;DHT22;456;53.584;9.968;2023-02-03T03:55:07;16.10;21.80
939;DHT22;456;53.584;9.968;2023-02-03T03:57:57;16.10;21.60
939;DHT22;456;53.584;9.968;2023-02-03T04:00:24;16.20;21.60
939;DHT22;456;53.584;9.968;2023-02-03T04:02:54;16.20;21.60
939;DHT22;456;53.584;9.968;2023-02-03T04:05:22;16.30;21.60
939;DHT22;456;53.584;9.968;2023-02-03T04:07:48;16.30;21.50
939;DHT22;456;53.584;9.968;2023-02-03T04:12:57;16.40;21.50
939;DHT22;456;53.584;9.968;2023-02-03T04:15:23;16.40;21.40
939;DHT22;456;53.584;9.968;2023-02-03T04:17:49;16.40;21.40
939;DHT22;456;53.584;9.968;2023-02-03T04:20:15;16.40;21.50
939;DHT22;456;53.584;9.968;2023-02-03T04:22:42;16.50;21.50
939;DHT22;456;53.584;9.968;2023-02-03T04:25:08;16.50;21.50
939;DHT22;456;53.584;9.968;2023-02-03T04:27:34;16.50;21.50
939;DHT22;456;53.584;9.968;2023-02-03T04:29:59;16.50;21.40
939;DHT22;456;53.584;9.968;2023-02-03T04:32:25;16.50;21.40
939;DHT22;456;53.584;9.968;2023-02-03T04:34:51;16.50;21.40
939;DHT22;456;53.584;9.968;2023-02-03T04:37:16;16.50;21.40
939;DHT22;456;53.584;9.968;2023-02-03T04:39:42;16.50;21.40
939;DHT22;456;53.584;9.968;2023-02-03T04:42:07;16.50;21.40
939;DHT22;456;53.584;9.968;2023-02-03T04:44:33;16.60;21.50
939;DHT22;456;53.584;9.968;2023-02-03T04:46:58;16.60;21.40
939;DHT22;456;53.584;9.968;2023-02-03T04:49:24;16.60;21.40
939;DHT22;456;53.584;9.968;2023-02-03T04:51:50;16.50;21.40
939;DHT22;456;53.584;9.968;2023-02-03T04:54:16;16.50;21.60
939;DHT22;456;53.584;9.968;2023-02-03T04:56:42;16.50;21.70
939;DHT22;456;53.584;9.968;2023-02-03T04:59:07;16.50;21.70
939;DHT22;456;53.584;9.968;2023-02-03T05:01:33;16.50;21.70
939;DHT22;456;53.584;9.968;2023-02-03T05:03:59;16.50;21.70
939;DHT22;456;53.584;9.968;2023-02-03T05:06:26;16.50;21.70
939;DHT22;456;53.584;9.968;2023-02-03T05:08:53;16.50;21.80
939;DHT22;456;53.584;9.968;2023-02-03T05:11:20;16.50;21.70
939;DHT22;456;53.584;9.968;2023-02-03T05:13:46;16.50;21.80
939;DHT22;456;53.584;9.968;2023-02-03T05:16:11;16.50;22.30
939;DHT22;456;53.584;9.968;2023-02-03T05:18:37;16.50;21.80
939;DHT22;456;53.584;9.968;2023-02-03T05:21:03;16.50;21.80
939;DHT22;456;53.584;9.968;2023-02-03T05:23:28;16.50;21.80
939;DHT22;456;53.584;9.968;2023-02-03T05:25:54;16.50;21.70
939;DHT22;456;53.584;9.968;2023-02-03T05:28:19;16.50;21.90
939;DHT22;456;53.584;9.968;2023-02-03T05:30:45;16.50;21.90
939;DHT22;456;53.584;9.968;2023-02-03T05:33:11;16.50;22.00
939;DHT22;456;53.584;9.968;2023-02-03T05:35:36;16.50;22.00
939;DHT22;456;53.584;9.968;2023-02-03T05:38:02;16.50;22.00
939;DHT22;456;53.584;9.968;2023-02-03T05:40:27;16.50;21.80
939;DHT22;456;53.584;9.968;2023-02-03T05:43:12;16.50;21.60
939;DHT22;456;53.584;9.968;2023-02-03T05:45:37;16.50;21.60
939;DHT22;456;53.584;9.968;2023-02-03T05:48:03;16.60;21.60
939;DHT22;456;53.584;9.968;2023-02-03T05:50:30;16.50;21.50
939;DHT22;456;53.584;9.968;2023-02-03T05:52:59;16.60;21.50
939;DHT22;456;53.584;9.968;2023-02-03T05:55:26;16.60;21.40
939;DHT22;456;53.584;9.968;2023-02-03T05:57:52;16.60;21.50
939;DHT22;456;53.584;9.968;2023-02-03T06:00:18;16.60;21.40
939;DHT22;456;53.584;9.968;2023-02-03T06:02:55;16.60;21.40
939;DHT22;456;53.584;9.968;2023-02-03T06:05:21;16.70;21.50
939;DHT22;456;53.584;9.968;2023-02-03T06:07:48;16.60;21.40
939;DHT22;456;53.584;9.968;2023-02-03T06:10:14;16.70;21.50
939;DHT22;456;53.584;9.968;2023-02-03T06:12:40;16.60;21.30
939;DHT22;456;53.584;9.968;2023-02-03T06:15:06;16.60;22.00
939;DHT22;456;53.584;9.968;2023-02-03T06:17:32;16.70;21.50
939;DHT22;456;53.584;9.968;2023-02-03T06:19:58;16.70;21.50
939;DHT22;456;53.584;9.968;2023-02-03T06:22:23;16.70;21.50
939;DHT22;456;53.584;9.968;2023-02-03T06:24:49;16.60;21.40
939;DHT22;456;53.584;9.968;2023-02-03T06:27:15;16.60;21.40
939;DHT22;456;53.584;9.968;2023-02-03T06:29:41;16.60;21.40
939;DHT22;456;53.584;9.968;2023-02-03T06:32:07;16.60;21.40
939;DHT22;456;53.584;9.968;2023-02-03T06:34:33;16.60;21.40
939;DHT22;456;53.584;9.968;2023-02-03T06:36:58;16.60;21.50
939;DHT22;456;53.584;9.968;2023-02-03T06:39:24;16.60;21.50
939;DHT22;456;53.584;9.968;2023-02-03T06:41:50;16.60;21.50
939;DHT22;456;53.584;9.968;2023-02-03T06:44:20;16.60;21.50
939;DHT22;456;53.584;9.968;2023-02-03T06:46:45;16.60;22.00
939;DHT22;456;53.584;9.968;2023-02-03T06:49:11;16.60;21.50
939;DHT22;456;53.584;9.968;2023-02-03T06:51:36;16.60;21.40
939;DHT22;456;53.584;9.968;2023-02-03T06:54:02;16.60;21.50
939;DHT22;456;53.584;9.968;2023-02-03T06:56:29;16.60;21.80
939;DHT22;456;53.584;9.968;2023-02-03T06:58:55;16.60;21.80
939;DHT22;456;53.584;9.968;2023-02-03T07:01:22;16.60;21.80
939;DHT22;456;53.584;9.968;2023-02-03T07:03:48;16.50;21.80
939;DHT22;456;53.584;9.968;2023-02-03T07:06:13;16.50;21.80
939;DHT22;456;53.584;9.968;2023-02-03T07:08:39;16.50;21.80
939;DHT22;456;53.584;9.968;2023-02-03T07:11:06;16.50;21.90
939;DHT22;456;53.584;9.968;2023-02-03T07:13:31;16.50;22.00
939;DHT22;456;53.584;9.968;2023-02-03T07:15:57;16.50;22.00
939;DHT22;456;53.584;9.968;2023-02-03T07:18:22;16.50;21.90
939;DHT22;456;53.584;9.968;2023-02-03T07:20:50;16.50;21.80
939;DHT22;456;53.584;9.968;2023-02-03T07:23:16;16.50;22.10
939;DHT22;456;53.584;9.968;2023-02-03T07:25:41;16.50;22.10
939;DHT22;456;53.584;9.968;2023-02-03T07:28:07;16.50;22.20
939;DHT22;456;53.584;9.968;2023-02-03T07:30:33;16.50;22.20
939;DHT22;456;53.584;9.968;2023-02-03T07:32:58;16.50;22.20
939;DHT22;456;53.584;9.968;2023-02-03T07:35:24;16.50;22.40
939;DHT22;456;53.584;9.968;2023-02-03T07:37:50;16.50;22.40
939;DHT22;456;53.584;9.968;2023-02-03T07:40:16;16.50;22.40
939;DHT22;456;53.584;9.968;2023-02-03T07:42:46;16.50;22.50
939;DHT22;456;53.584;9.968;2023-02-03T07:45:14;16.50;22.40
939;DHT22;456;53.584;9.968;2023-02-03T07:47:41;16.50;22.40
939;DHT22;456;53.584;9.968;2023-02-03T07:50:08;16.50;22.50
939;DHT22;456;53.584;9.968;2023-02-03T07:52:33;16.50;22.70
939;DHT22;456;53.584;9.968;2023-02-03T07:54:59;16.40;22.50
939;DHT22;456;53.584;9.968;2023-02-03T07:57:25;16.40;22.70
939;DHT22;456;53.584;9.968;2023-02-03T07:59:51;16.40;22.50
939;DHT22;456;53.584;9.968;2023-02-03T08:02:17;16.50;22.40
939;DHT22;456;53.584;9.968;2023-02-03T08:04:43;16.50;22.50
939;DHT22;456;53.584;9.968;2023-02-03T08:07:08;16.50;22.30
939;DHT22;456;53.584;9.968;2023-02-03T08:09:34;16.50;22.30
939;DHT22;456;53.584;9.968;2023-02-03T08:11:59;16.50;22.20
939;DHT22;456;53.584;9.968;2023-02-03T08:14:25;16.60;22.30
939;DHT22;456;53.584;9.968;2023-02-03T08:16:50;16.60;22.40
939;DHT22;456;53.584;9.968;2023-02-03T08:19:16;16.50;22.10
939;DHT22;456;53.584;9.968;2023-02-03T08:21:42;16.60;22.30
939;DHT22;456;53.584;9.968;2023-02-03T08:24:07;16.60;22.30
939;DHT22;456;53.584;9.968;2023-02-03T08:26:35;16.60;22.40
939;DHT22;456;53.584;9.968;2023-02-03T08:29:01;16.60;22.60
939;DHT22;456;53.584;9.968;2023-02-03T08:31:29;16.60;22.60
939;DHT22;456;53.584;9.968;2023-02-03T08:33:54;16.60;22.60
939;DHT22;456;53.584;9.968;2023-02-03T08:36:20;16.60;22.50
939;DHT22;456;53.584;9.968;2023-02-03T08:38:46;16.60;22.20
939;DHT22;456;53.584;9.968;2023-02-03T08:41:14;16.60;22.90
939;DHT22;456;53.584;9.968;2023-02-03T08:43:40;16.50;22.90
939;DHT22;456;53.584;9.968;2023-02-03T08:46:07;16.50;23.00
939;DHT22;456;53.584;9.968;2023-02-03T08:48:34;16.50;23.10
939;DHT22;456;53.584;9.968;2023-02-03T08:51:00;16.50;23.20
939;DHT22;456;53.584;9.968;2023-02-03T08:53:26;16.50;23.30
939;DHT22;456;53.584;9.968;2023-02-03T08:55:53;16.40;23.20
939;DHT22;456;53.584;9.968;2023-02-03T08:58:19;16.40;23.10
939;DHT22;456;53.584;9.968;2023-02-03T09:00:44;16.40;23.20
939;DHT22;456;53.584;9.968;2023-02-03T09:03:13;16.40;23.20
939;DHT22;456;53.584;9.968;2023-02-03T09:05:38;16.40;23.10
939;DHT22;456;53.584;9.968;2023-02-03T09:08:04;16.40;23.20
939;DHT22;456;53.584;9.968;2023-02-03T09:10:30;16.40;23.10
939;DHT22;456;53.584;9.968;2023-02-03T09:12:55;16.40;23.10
939;DHT22;456;53.584;9.968;2023-02-03T09:15:21;16.30;23.00
939;DHT22;456;53.584;9.968;2023-02-03T09:17:46;16.30;23.00
939;DHT22;456;53.584;9.968;2023-02-03T09:20:12;16.30;23.00
939;DHT22;456;53.584;9.968;2023-02-03T09:22:39;16.30;23.00
939;DHT22;456;53.584;9.968;2023-02-03T09:25:05;16.30;22.90
939;DHT22;456;53.584;9.968;2023-02-03T09:27:31;16.30;22.80
939;DHT22;456;53.584;9.968;2023-02-03T09:29:57;16.30;22.90
939;DHT22;456;53.584;9.968;2023-02-03T09:32:23;16.30;23.00
939;DHT22;456;53.584;9.968;2023-02-03T09:34:48;16.30;22.90
939;DHT22;456;53.584;9.968;2023-02-03T09:37:14;16.30;22.90
939;DHT22;456;53.584;9.968;2023-02-03T09:39:40;16.30;22.90
939;DHT22;456;53.584;9.968;2023-02-03T09:43:11;16.30;22.90
939;DHT22;456;53.584;9.968;2023-02-03T09:47:44;16.30;22.90
939;DHT22;456;53.584;9.968;2023-02-03T09:50:14;16.30;23.00
939;DHT22;456;53.584;9.968;2023-02-03T09:52:42;16.30;23.50
939;DHT22;456;53.584;9.968;2023-02-03T09:58:03;16.30;22.90
939;DHT22;456;53.584;9.968;2023-02-03T10:03:34;16.30;23.10
939;DHT22;456;53.584;9.968;2023-02-03T10:08:35;16.30;23.00
939;DHT22;456;53.584;9.968;2023-02-03T10:11:21;16.30;23.00
939;DHT22;456;53.584;9.968;2023-02-03T10:22:25;16.20;22.90
939;DHT22;456;53.584;9.968;2023-02-03T10:27:41;16.20;22.90
939;DHT22;456;53.584;9.968;2023-02-03T10:30:40;16.20;22.90
939;DHT22;456;53.584;9.968;2023-02-03T10:33:14;16.20;22.80
939;DHT22;456;53.584;9.968;2023-02-03T10:36:14;16.20;22.90
939;DHT22;456;53.584;9.968;2023-02-03T10:41:17;16.20;22.80
939;DHT22;456;53.584;9.968;2023-02-03T10:43:45;16.20;22.90
939;DHT22;456;53.584;9.968;2023-02-03T10:46:19;16.20;22.90
939;DHT22;456;53.584;9.968;2023-02-03T10:48:45;16.20;22.90
939;DHT22;456;53.584;9.968;2023-02-03T10:51:20;16.20;22.80
939;DHT22;456;53.584;9.968;2023-02-03T10:53:46;16.20;22.90
939;DHT22;456;53.584;9.968;2023-02-03T10:56:14;16.20;22.80
939;DHT22;456;53.584;9.968;2023-02-03T10:58:47;16.20;22.80
939;DHT22;456;53.584;9.968;2023-02-03T11:01:19;16.20;22.80
939;DHT22;456;53.584;9.968;2023-02-03T11:06:20;16.20;22.90
939;DHT22;456;53.584;9.968;2023-02-03T11:08:48;16.20;22.90
939;DHT22;456;53.584;9.968;2023-02-03T11:11:31;16.20;22.80
939;DHT22;456;53.584;9.968;2023-02-03T11:16:32;16.20;22.80
939;DHT22;456;53.584;9.968;2023-02-03T11:19:09;16.10;22.70
939;DHT22;456;53.584;9.968;2023-02-03T11:26:51;16.10;22.60
939;DHT22;456;53.584;9.968;2023-02-03T11:29:29;16.10;22.60
939;DHT22;456;53.584;9.968;2023-02-03T11:32:00;16.10;22.60
939;DHT22;456;53.584;9.968;2023-02-03T11:34:34;16.10;22.60
939;DHT22;456;53.584;9.968;2023-02-03T11:42:44;16.10;22.50
939;DHT22;456;53.584;9.968;2023-02-03T11:56:03;16.10;22.60
939;DHT22;456;53.584;9.968;2023-02-03T12:01:27;16.10;22.50
939;DHT22;456;53.584;9.968;2023-02-03T12:07:02;16.10;22.50
939;DHT22;456;53.584;9.968;2023-02-03T12:12:31;16.10;23.00
939;DHT22;456;53.584;9.968;2023-02-03T12:15:26;16.10;22.40
939;DHT22;456;53.584;9.968;2023-02-03T12:23:34;16.10;22.40
939;DHT22;456;53.584;9.968;2023-02-03T12:26:21;16.10;22.40
939;DHT22;456;53.584;9.968;2023-02-03T12:29:00;16.10;22.40
939;DHT22;456;53.584;9.968;2023-02-03T12:37:20;16.10;22.30
939;DHT22;456;53.584;9.968;2023-02-03T12:42:55;16.10;22.30
939;DHT22;456;53.584;9.968;2023-02-03T12:45:29;16.10;22.30
939;DHT22;456;53.584;9.968;2023-02-03T12:48:03;16.10;22.30
939;DHT22;456;53.584;9.968;2023-02-03T12:50:44;16.10;22.30
939;DHT22;456;53.584;9.968;2023-02-03T12:53:18;16.10;22.20
939;DHT22;456;53.584;9.968;2023-02-03T12:55:58;16.10;22.30
939;DHT22;456;53.584;9.968;2023-02-03T12:58:43;16.10;22.30
939;DHT22;456;53.584;9.968;2023-02-03T13:01:15;16.10;22.30
939;DHT22;456;53.584;9.968;2023-02-03T13:06:42;16.10;22.20
939;DHT22;456;53.584;9.968;2023-02-03T13:12:30;16.10;22.70
939;DHT22;456;53.584;9.968;2023-02-03T13:17:28;16.10;22.20
939;DHT22;456;53.584;9.968;2023-02-03T13:20:03;16.00;22.10
939;DHT22;456;53.584;9.968;2023-02-03T13:22:30;16.10;22.20
939;DHT22;456;53.584;9.968;2023-02-03T13:25:13;16.10;22.10
939;DHT22;456;53.584;9.968;2023-02-03T13:27:44;16.10;22.10
939;DHT22;456;53.584;9.968;2023-02-03T13:30:18;16.10;22.10
939;DHT22;456;53.584;9.968;2023-02-03T13:41:40;16.10;22.10
939;DHT22;456;53.584;9.968;2023-02-03T13:44:11;16.00;22.00
939;DHT22;456;53.584;9.968;2023-02-03T13:46:38;16.00;22.00
939;DHT22;456;53.584;9.968;2023-02-03T13:49:05;16.00;22.00
939;DHT22;456;53.584;9.968;2023-02-03T13:51:36;16.00;22.00
939;DHT22;456;53.584;9.968;2023-02-03T13:54:05;16.00;22.00
939;DHT22;456;53.584;9.968;2023-02-03T13:56:33;16.00;22.00
939;DHT22;456;53.584;9.968;2023-02-03T13:59:11;16.00;22.00
939;DHT22;456;53.584;9.968;2023-02-03T14:01:44;16.00;22.00
939;DHT22;456;53.584;9.968;2023-02-03T14:11:47;16.00;21.90
939;DHT22;456;53.584;9.968;2023-02-03T14:16:45;16.00;21.90
939;DHT22;456;53.584;9.968;2023-02-03T14:22:01;16.00;21.90
939;DHT22;456;53.584;9.968;2023-02-03T14:24:40;16.00;21.80
939;DHT22;456;53.584;9.968;2023-02-03T14:30:07;16.00;21.80
939;DHT22;456;53.584;9.968;2023-02-03T14:32:53;16.10;21.80
939;DHT22;456;53.584;9.968;2023-02-03T14:35:30;16.10;21.80
939;DHT22;456;53.584;9.968;2023-02-03T14:38:00;16.20;22.30
939;DHT22;456;53.584;9.968;2023-02-03T14:40:41;16.20;21.80
939;DHT22;456;53.584;9.968;2023-02-03T15:02:25;16.40;21.60
939;DHT22;456;53.584;9.968;2023-02-03T15:07:42;16.40;21.60
939;DHT22;456;53.584;9.968;2023-02-03T15:10:21;16.40;21.50
939;DHT22;456;53.584;9.968;2023-02-03T15:12:51;16.40;21.50
939;DHT22;456;53.584;9.968;2023-02-03T15:17:53;16.40;21.40
939;DHT22;456;53.584;9.968;2023-02-03T15:20:38;16.40;21.40
939;DHT22;456;53.584;9.968;2023-02-03T15:23:25;16.40;21.40
939;DHT22;456;53.584;9.968;2023-02-03T15:25:55;16.40;21.40
939;DHT22;456;53.584;9.968;2023-02-03T15:28:23;16.50;21.40
939;DHT22;456;53.584;9.968;2023-02-03T15:30:54;16.50;21.30
939;DHT22;456;53.584;9.968;2023-02-03T15:33:22;16.50;21.30
939;DHT22;456;53.584;9.968;2023-02-03T15:35:53;16.50;21.30
939;DHT22;456;53.584;9.968;2023-02-03T15:38:34;16.50;21.20
939;DHT22;456;53.584;9.968;2023-02-03T15:41:02;16.50;21.20
939;DHT22;456;53.584;9.968;2023-02-03T15:43:37;16.50;21.20
939;DHT22;456;53.584;9.968;2023-02-03T15:46:19;16.50;21.20
939;DHT22;456;53.584;9.968;2023-02-03T15:48:52;16.50;21.20
939;DHT22;456;53.584;9.968;2023-02-03T15:51:36;16.50;21.20
939;DHT22;456;53.584;9.968;2023-02-03T15:57:15;16.50;21.10
939;DHT22;456;53.584;9.968;2023-02-03T16:00:10;16.50;21.10
939;DHT22;456;53.584;9.968;2023-02-03T16:02:43;16.50;21.10
939;DHT22;456;53.584;9.968;2023-02-03T16:05:23;16.50;21.10
939;DHT22;456;53.584;9.968;2023-02-03T16:07:49;16.50;21.10
939;DHT22;456;53.584;9.968;2023-02-03T16:10:29;16.50;21.10
939;DHT22;456;53.584;9.968;2023-02-03T16:13:27;16.50;21.10
939;DHT22;456;53.584;9.968;2023-02-03T16:15:59;16.50;21.10
939;DHT22;456;53.584;9.968;2023-02-03T16:18:26;16.50;21.20
939;DHT22;456;53.584;9.968;2023-02-03T16:20:51;16.50;21.20
939;DHT22;456;53.584;9.968;2023-02-03T16:23:20;16.50;21.20
939;DHT22;456;53.584;9.968;2023-02-03T16:28:38;16.50;21.10
939;DHT22;456;53.584;9.968;2023-02-03T16:31:23;16.50;21.10
939;DHT22;456;53.584;9.968;2023-02-03T16:34:13;16.50;21.10
939;DHT22;456;53.584;9.968;2023-02-03T16:36:58;16.60;21.10
939;DHT22;456;53.584;9.968;2023-02-03T16:39:42;16.50;21.00
939;DHT22;456;53.584;9.968;2023-02-03T16:42:36;16.60;21.00
939;DHT22;456;53.584;9.968;2023-02-03T16:45:21;16.50;21.00
939;DHT22;456;53.584;9.968;2023-02-03T16:48:05;16.60;21.00
939;DHT22;456;53.584;9.968;2023-02-03T16:50:49;16.50;20.90
939;DHT22;456;53.584;9.968;2023-02-03T16:53:29;16.50;20.90
939;DHT22;456;53.584;9.968;2023-02-03T16:55:56;16.50;20.90
939;DHT22;456;53.584;9.968;2023-02-03T16:58:23;16.60;21.00
939;DHT22;456;53.584;9.968;2023-02-03T17:00:50;16.60;20.90
939;DHT22;456;53.584;9.968;2023-02-03T17:03:25;16.50;20.80
939;DHT22;456;53.584;9.968;2023-02-03T17:05:51;16.50;20.80
939;DHT22;456;53.584;9.968;2023-02-03T17:08:19;16.50;20.90
939;DHT22;456;53.584;9.968;2023-02-03T17:10:46;16.50;20.90
939;DHT22;456;53.584;9.968;2023-02-03T17:13:15;16.50;20.90
939;DHT22;456;53.584;9.968;2023-02-03T17:15:47;16.50;20.80
939;DHT22;456;53.584;9.968;2023-02-03T17:18:13;16.50;20.90
939;DHT22;456;53.584;9.968;2023-02-03T17:20:41;16.50;20.90
939;DHT22;456;53.584;9.968;2023-02-03T17:23:07;16.50;20.80
939;DHT22;456;53.584;9.968;2023-02-03T17:25:34;16.60;20.90
939;DHT22;456;53.584;9.968;2023-02-03T17:28:04;16.60;20.90
939;DHT22;456;53.584;9.968;2023-02-03T17:30:30;16.60;20.90
939;DHT22;456;53.584;9.968;2023-02-03T17:33:04;16.60;20.90
939;DHT22;456;53.584;9.968;2023-02-03T17:35:37;16.60;20.90
939;DHT22;456;53.584;9.968;2023-02-03T17:38:03;16.50;20.90
939;DHT22;456;53.584;9.968;2023-02-03T17:40:28;16.60;20.90
939;DHT22;456;53.584;9.968;2023-02-03T17:42:54;16.60;20.80
939;DHT22;456;53.584;9.968;2023-02-03T17:45:20;16.60;20.70
939;DHT22;456;53.584;9.968;2023-02-03T17:47:45;16.60;20.90
939;DHT22;456;53.584;9.968;2023-02-03T17:50:12;16.60;20.80
939;DHT22;456;53.584;9.968;2023-02-03T17:52:40;16.60;20.80
939;DHT22;456;53.584;9.968;2023-02-03T17:55:05;16.60;20.80
939;DHT22;456;53.584;9.968;2023-02-03T17:57:36;16.60;20.80
939;DHT22;456;53.584;9.968;2023-02-03T18:00:01;16.60;20.80
939;DHT22;456;53.584;9.968;2023-02-03T18:02:27;16.60;20.80
939;DHT22;456;53.584;9.968;2023-02-03T18:04:53;16.60;20.80
939;DHT22;456;53.584;9.968;2023-02-03T18:07:18;16.60;20.80
939;DHT22;456;53.584;9.968;2023-02-03T18:09:44;16.60;20.80
939;DHT22;456;53.584;9.968;2023-02-03T18:12:09;16.60;20.70
939;DHT22;456;53.584;9.968;2023-02-03T18:14:35;16.60;20.70
939;DHT22;456;53.584;9.968;2023-02-03T18:17:00;16.60;20.60
939;DHT22;456;53.584;9.968;2023-02-03T18:19:26;16.60;20.60
939;DHT22;456;53.584;9.968;2023-02-03T18:21:52;16.60;20.70
939;DHT22;456;53.584;9.968;2023-02-03T18:24:17;16.60;20.60
939;DHT22;456;53.584;9.968;2023-02-03T18:26:49;16.60;20.60
939;DHT22;456;53.584;9.968;2023-02-03T18:29:16;16.60;20.70
939;DHT22;456;53.584;9.968;2023-02-03T18:31:42;16.60;20.70
939;DHT22;456;53.584;9.968;2023-02-03T18:34:08;16.60;20.70
939;DHT22;456;53.584;9.968;2023-02-03T18:36:34;16.60;20.70
939;DHT22;456;53.584;9.968;2023-02-03T18:39:00;16.60;20.80
939;DHT22;456;53.584;9.968;2023-02-03T18:41:25;16.70;20.80
939;DHT22;456;53.584;9.968;2023-02-03T18:43:51;16.60;20.70
939;DHT22;456;53.584;9.968;2023-02-03T18:46:22;16.70;20.70
939;DHT22;456;53.584;9.968;2023-02-03T18:48:48;16.60;20.70
939;DHT22;456;53.584;9.968;2023-02-03T18:51:16;16.70;20.80
939;DHT22;456;53.584;9.968;2023-02-03T18:53:42;16.70;20.70
939;DHT22;456;53.584;9.968;2023-02-03T18:56:14;16.70;20.70
939;DHT22;456;53.584;9.968;2023-02-03T18:58:40;16.70;20.70
939;DHT22;456;53.584;9.968;2023-02-03T19:01:06;16.60;20.60
939;DHT22;456;53.584;9.968;2023-02-03T19:03:35;16.70;20.70
939;DHT22;456;53.584;9.968;2023-02-03T19:06:01;16.70;20.70
939;DHT22;456;53.584;9.968;2023-02-03T19:08:26;16.70;20.70
939;DHT22;456;53.584;9.968;2023-02-03T19:10:53;16.70;20.70
939;DHT22;456;53.584;9.968;2023-02-03T19:13:19;16.60;20.60
939;DHT22;456;53.584;9.968;2023-02-03T19:15:50;16.70;20.70
939;DHT22;456;53.584;9.968;2023-02-03T19:18:15;16.70;20.60
939;DHT22;456;53.584;9.968;2023-02-03T19:20:42;16.70;20.70
939;DHT22;456;53.584;9.968;2023-02-03T19:23:09;16.70;20.70
939;DHT22;456;53.584;9.968;2023-02-03T19:25:35;16.70;20.70
939;DHT22;456;53.584;9.968;2023-02-03T19:28:01;16.60;20.60
939;DHT22;456;53.584;9.968;2023-02-03T19:30:30;16.70;20.70